createdAt,value
2023-04-09T00:00:05.476Z,17.02
2023-04-09T00:03:14.664Z,15.77
2023-04-09T00:06:17.226Z,16.95
2023-04-09T00:09:20.941Z,15.43
2023-04-09T00:15:31.166Z,15.70
2023-04-09T00:18:34.450Z,16.45
2023-04-09T00:21:37.162Z,16.15
2023-04-09T00:24:39.625Z,17.02
2023-04-09T00:27:42.041Z,16.10
2023-04-09T00:30:44.644Z,17.48
2023-04-09T00:33:47.049Z,16.45
2023-04-09T00:36:49.570Z,15.27
2023-04-09T00:39:52.176Z,17.38
2023-04-09T00:42:54.600Z,15.68
2023-04-09T00:45:57.269Z,15.65
2023-04-09T00:48:59.933Z,16.80
2023-04-09T00:52:02.808Z,15.65
2023-04-09T00:55:06.504Z,15.60
2023-04-09T00:58:08.980Z,13.70
2023-04-09T01:01:11.674Z,15.85
2023-04-09T01:04:14.379Z,16.55
2023-04-09T01:07:55.038Z,14.57
2023-04-09T01:11:16.363Z,15.48
2023-04-09T01:14:26.815Z,17.08
2023-04-09T01:17:36.108Z,16.60
2023-04-09T01:20:38.927Z,16.33
2023-04-09T01:23:50.764Z,16.13
2023-04-09T01:27:04.506Z,16.42
2023-04-09T01:30:13.854Z,16.63
2023-04-09T01:33:17.845Z,16.40
2023-04-09T01:36:20.780Z,16.05
2023-04-09T01:39:23.537Z,16.55
2023-04-09T01:42:26.170Z,14.55
2023-04-09T01:45:28.663Z,16.02
2023-04-09T01:48:31.536Z,17.17
2023-04-09T01:51:34.046Z,17.05
2023-04-09T01:54:36.723Z,16.20
2023-04-09T01:57:39.259Z,15.05
2023-04-09T02:00:51.283Z,14.77
2023-04-09T02:03:56.870Z,14.40
2023-04-09T02:07:15.517Z,15.95
2023-04-09T02:10:18.087Z,14.32
2023-04-09T02:13:21.831Z,15.00
2023-04-09T02:16:24.370Z,15.38
2023-04-09T02:19:47.113Z,15.88
2023-04-09T02:25:52.271Z,14.23
2023-04-09T02:28:55.089Z,14.25
2023-04-09T02:31:57.566Z,15.50
2023-04-09T02:35:00.000Z,14.98
2023-04-09T02:38:02.477Z,15.32
2023-04-09T02:41:05.035Z,16.05
2023-04-09T02:44:07.486Z,14.30
2023-04-09T02:47:10.268Z,16.50
2023-04-09T02:50:13.562Z,15.15
2023-04-09T02:53:22.278Z,15.15
2023-04-09T02:56:24.739Z,15.23
2023-04-09T02:59:27.150Z,14.23
2023-04-09T03:02:29.812Z,15.57
2023-04-09T03:05:32.403Z,13.82
2023-04-09T03:08:35.088Z,15.52
2023-04-09T03:11:37.689Z,14.30
2023-04-09T03:14:40.146Z,14.65
2023-04-09T03:17:43.010Z,12.98
2023-04-09T03:20:45.507Z,14.60
2023-04-09T03:23:49.510Z,14.63
2023-04-09T03:26:52.387Z,15.10
2023-04-09T03:29:58.202Z,15.68
2023-04-09T03:33:09.233Z,14.77
2023-04-09T03:36:24.797Z,14.85
2023-04-09T03:39:37.542Z,15.15
2023-04-09T03:42:48.617Z,14.18
2023-04-09T03:45:52.532Z,15.25
2023-04-09T03:49:01.233Z,16.75
2023-04-09T03:52:12.352Z,14.98
2023-04-09T03:55:18.767Z,14.38
2023-04-09T03:58:21.719Z,14.40
2023-04-09T04:01:24.317Z,13.80
2023-04-09T04:04:34.112Z,14.70
2023-04-09T04:07:39.667Z,12.82
2023-04-09T04:10:46.890Z,13.90
2023-04-09T04:13:52.028Z,15.18
2023-04-09T04:16:54.785Z,13.52
2023-04-09T04:20:02.349Z,12.75
2023-04-09T04:23:07.029Z,13.90
2023-04-09T04:26:12.286Z,13.95
2023-04-09T04:29:16.866Z,14.48
2023-04-09T04:32:28.225Z,15.25
2023-04-09T04:35:31.904Z,14.43
2023-04-09T04:38:38.337Z,13.25
2023-04-09T04:41:47.056Z,15.00
2023-04-09T04:44:54.975Z,14.07
2023-04-09T04:48:30.979Z,14.13
2023-04-09T04:51:34.099Z,14.10
2023-04-09T04:54:45.453Z,14.60
2023-04-09T04:57:53.304Z,13.98
2023-04-09T05:01:00.760Z,13.93
2023-04-09T05:04:04.621Z,14.23
2023-04-09T05:07:12.358Z,13.73
2023-04-09T05:10:23.216Z,12.85
2023-04-09T05:13:26.040Z,14.68
2023-04-09T05:16:29.223Z,14.90
2023-04-09T05:19:38.342Z,13.18
2023-04-09T05:22:40.867Z,13.30
2023-04-09T05:25:43.781Z,13.75
2023-04-09T05:28:55.375Z,13.75
2023-04-09T05:31:59.428Z,14.57
2023-04-09T05:35:11.969Z,14.23
2023-04-09T05:38:18.525Z,13.48
2023-04-09T05:41:25.868Z,13.73
2023-04-09T05:44:46.701Z,14.40
2023-04-09T05:47:53.175Z,14.43
2023-04-09T05:51:00.357Z,15.45
2023-04-09T05:54:04.265Z,15.52
2023-04-09T05:57:10.769Z,13.43
2023-04-09T06:00:16.737Z,13.50
2023-04-09T06:03:19.713Z,13.27
2023-04-09T06:06:22.895Z,12.68
2023-04-09T06:09:25.517Z,12.98
2023-04-09T06:12:27.869Z,13.00
2023-04-09T06:15:30.522Z,13.48
2023-04-09T06:18:33.162Z,14.82
2023-04-09T06:21:35.607Z,13.82
2023-04-09T06:24:38.043Z,13.45
2023-04-09T06:27:40.435Z,14.65
2023-04-09T06:30:42.808Z,13.38
2023-04-09T06:33:45.430Z,12.85
2023-04-09T06:36:47.865Z,13.50
2023-04-09T06:40:00.526Z,13.82
2023-04-09T06:43:04.303Z,13.57
2023-04-09T06:46:20.097Z,13.00
2023-04-09T06:49:22.818Z,12.95
2023-04-09T06:52:25.850Z,13.10
2023-04-09T06:55:28.486Z,14.30
2023-04-09T06:58:31.357Z,12.10
2023-04-09T07:01:35.791Z,10.38
2023-04-09T07:04:38.402Z,13.60
2023-04-09T07:07:41.242Z,12.82
2023-04-09T07:10:43.669Z,11.85
2023-04-09T07:13:46.320Z,11.75
2023-04-09T07:16:48.903Z,13.18
2023-04-09T07:19:54.136Z,12.70
2023-04-09T07:22:56.597Z,12.57
2023-04-09T07:26:01.489Z,13.25
2023-04-09T07:29:04.532Z,13.15
2023-04-09T07:32:08.945Z,12.10
2023-04-09T07:35:11.862Z,10.18
2023-04-09T07:38:14.506Z,10.23
2023-04-09T07:41:17.076Z,9.60
2023-04-09T07:44:20.065Z,9.07
2023-04-09T07:47:23.499Z,10.07
2023-04-09T07:50:27.033Z,9.57
2023-04-09T07:53:30.000Z,9.52
2023-04-09T07:56:32.479Z,11.73
2023-04-09T07:59:36.564Z,10.73
2023-04-09T08:02:40.106Z,8.93
2023-04-09T08:05:43.688Z,9.32
2023-04-09T08:08:47.229Z,9.00
2023-04-09T08:14:52.862Z,9.38
2023-04-09T08:17:55.843Z,9.20
2023-04-09T08:20:58.405Z,8.05
2023-04-09T08:24:06.008Z,10.82
2023-04-09T08:27:09.202Z,10.73
2023-04-09T08:30:12.555Z,10.65
2023-04-09T08:33:16.962Z,9.30
2023-04-09T08:36:20.394Z,10.60
2023-04-09T08:39:23.152Z,9.45
2023-04-09T08:42:26.501Z,9.48
2023-04-09T08:48:32.480Z,10.15
2023-04-09T08:51:35.311Z,9.80
2023-04-09T08:54:38.464Z,10.40
2023-04-09T09:04:10.907Z,9.35
2023-04-09T09:07:14.007Z,9.35
2023-04-09T09:10:16.403Z,9.25
2023-04-09T09:13:25.662Z,9.80
2023-04-09T09:16:28.162Z,9.48
2023-04-09T09:19:34.071Z,9.70
2023-04-09T09:22:54.930Z,9.88
2023-04-09T09:25:57.975Z,9.52
2023-04-09T09:29:00.581Z,9.82
2023-04-09T09:32:03.027Z,10.23
2023-04-09T09:35:06.614Z,8.52
2023-04-09T09:38:09.051Z,9.00
2023-04-09T09:41:18.525Z,9.60
2023-04-09T09:44:32.005Z,9.15
2023-04-09T09:47:35.024Z,9.63
2023-04-09T09:50:38.279Z,9.00
2023-04-09T09:53:43.670Z,10.02
2023-04-09T09:56:46.486Z,9.68
2023-04-09T09:59:54.951Z,9.73
2023-04-09T10:02:59.350Z,9.02
2023-04-09T10:06:02.475Z,9.80
2023-04-09T10:09:05.248Z,10.57
2023-04-09T10:12:07.884Z,9.18
2023-04-09T10:15:10.658Z,9.10
2023-04-09T10:18:13.154Z,9.93
2023-04-09T10:21:34.385Z,10.25
2023-04-09T10:24:36.858Z,10.18
2023-04-09T10:27:39.530Z,10.45
2023-04-09T10:30:42.857Z,10.30
2023-04-09T10:33:46.166Z,9.23
2023-04-09T10:36:53.544Z,9.70
2023-04-09T10:39:56.605Z,9.40
2023-04-09T10:42:59.224Z,10.32
2023-04-09T10:46:02.160Z,10.25
2023-04-09T10:49:21.011Z,10.25
2023-04-09T10:52:23.409Z,9.38
2023-04-09T10:55:36.466Z,10.20
2023-04-09T10:58:38.950Z,10.18
2023-04-09T11:01:41.523Z,10.80
2023-04-09T11:05:03.143Z,11.50
2023-04-09T11:08:09.728Z,10.02
2023-04-09T11:11:13.402Z,10.25
2023-04-09T11:14:20.599Z,10.00
2023-04-09T11:17:23.131Z,9.38
2023-04-09T11:20:26.224Z,9.45
2023-04-09T11:23:28.696Z,10.48
2023-04-09T11:26:37.542Z,10.20
2023-04-09T11:29:39.934Z,10.10
2023-04-09T11:32:42.453Z,10.18
2023-04-09T11:35:44.991Z,10.38
2023-04-09T11:38:49.447Z,10.70
2023-04-09T11:41:52.185Z,10.73
2023-04-09T11:44:54.617Z,10.02
2023-04-09T11:47:57.084Z,10.18
2023-04-09T11:50:59.666Z,9.50
2023-04-09T11:54:05.771Z,10.65
2023-04-09T11:57:08.317Z,10.63
2023-04-09T12:00:14.820Z,10.68
2023-04-09T12:03:17.463Z,10.52
2023-04-09T12:06:24.851Z,10.90
2023-04-09T12:09:27.343Z,11.70
2023-04-09T12:12:29.711Z,9.05
2023-04-09T12:15:37.214Z,11.02
2023-04-09T12:18:40.105Z,9.82
2023-04-09T12:21:56.386Z,9.45
2023-04-09T12:24:59.130Z,10.63
2023-04-09T12:28:02.250Z,10.93
2023-04-09T12:34:06.950Z,10.95
2023-04-09T12:37:09.750Z,11.88
2023-04-09T12:40:15.232Z,11.25
2023-04-09T12:43:17.964Z,11.07
2023-04-09T12:46:20.518Z,11.32
2023-04-09T12:49:23.256Z,12.25
2023-04-09T12:52:25.820Z,13.32
2023-04-09T12:55:28.718Z,20.05
2023-04-09T13:01:33.758Z,12.15
2023-04-09T13:04:36.465Z,11.60
2023-04-09T13:07:41.494Z,11.65
2023-04-09T13:10:45.357Z,11.82
2023-04-09T13:13:47.928Z,11.07
2023-04-09T13:16:52.524Z,11.88
2023-04-09T13:19:55.191Z,11.48
2023-04-09T13:26:01.284Z,11.95
2023-04-09T13:29:04.363Z,13.07
2023-04-09T13:32:11.408Z,11.57
2023-04-09T13:35:13.934Z,11.45
2023-04-09T13:38:16.348Z,11.32
2023-04-09T13:41:18.851Z,11.77
2023-04-09T13:44:21.260Z,11.93
2023-04-09T13:47:24.064Z,11.07
2023-04-09T13:53:28.931Z,10.93
2023-04-09T13:56:31.507Z,11.25
2023-04-09T13:59:34.137Z,11.82
2023-04-09T14:02:36.848Z,11.18
2023-04-09T14:05:39.294Z,9.90
2023-04-09T14:08:41.863Z,10.60
2023-04-09T14:11:44.346Z,9.77
2023-04-09T14:14:46.745Z,9.90
2023-04-09T14:17:49.488Z,10.13
2023-04-09T14:20:51.909Z,11.07
2023-04-09T14:23:54.490Z,10.10
2023-04-09T14:26:57.190Z,10.52
2023-04-09T14:29:59.671Z,10.43
2023-04-09T14:33:02.213Z,10.80
2023-04-09T14:36:04.930Z,9.68
2023-04-09T14:39:07.466Z,9.90
2023-04-09T14:42:09.906Z,10.52
2023-04-09T14:45:12.655Z,9.52
2023-04-09T14:48:15.142Z,10.57
2023-04-09T14:51:17.746Z,9.77
2023-04-09T14:54:20.139Z,10.23
2023-04-09T14:57:22.489Z,9.80
2023-04-09T15:00:25.140Z,10.07
2023-04-09T15:03:28.158Z,9.45
2023-04-09T15:06:32.340Z,12.02
2023-04-09T15:09:34.779Z,20.80
2023-04-09T15:12:37.289Z,11.02
2023-04-09T15:15:44.314Z,11.40
2023-04-09T15:18:49.496Z,9.35
2023-04-09T15:21:51.914Z,8.20
2023-04-09T15:24:54.529Z,8.13
2023-04-09T15:27:57.088Z,8.48
2023-04-09T15:30:59.484Z,9.13
2023-04-09T15:34:01.988Z,8.63
2023-04-09T15:37:04.506Z,9.23
2023-04-09T15:40:07.911Z,10.35
2023-04-09T15:43:10.358Z,10.10
2023-04-09T15:46:12.895Z,10.60
2023-04-09T15:49:18.159Z,9.52
2023-04-09T15:52:20.692Z,9.55
2023-04-09T15:55:26.852Z,17.02
2023-04-09T15:58:29.287Z,15.02
2023-04-09T16:01:32.901Z,11.70
2023-04-09T16:04:35.652Z,17.25
2023-04-09T16:07:39.620Z,15.32
2023-04-09T16:10:42.015Z,11.27
2023-04-09T16:13:44.946Z,14.85
2023-04-09T16:16:50.096Z,16.58
2023-04-09T16:19:52.635Z,11.15
2023-04-09T16:22:55.003Z,11.27
2023-04-09T16:25:57.826Z,10.65
2023-04-09T16:29:04.134Z,11.52
2023-04-09T16:32:06.702Z,10.35
2023-04-09T16:35:09.363Z,10.77
2023-04-09T16:38:11.883Z,10.93
2023-04-09T16:41:14.443Z,11.25
2023-04-09T16:44:16.960Z,11.98
2023-04-09T16:47:19.388Z,10.38
2023-04-09T16:50:22.537Z,10.77
2023-04-09T16:53:24.972Z,12.23
2023-04-09T16:56:27.630Z,10.65
2023-04-09T16:59:30.064Z,11.20
2023-04-09T17:02:33.240Z,13.57
2023-04-09T17:14:42.971Z,12.77
2023-04-09T17:17:46.022Z,12.30
2023-04-09T17:20:49.289Z,11.38
2023-04-09T17:26:53.828Z,12.02
2023-04-09T17:29:56.588Z,12.63
2023-04-09T17:32:59.300Z,12.70
2023-04-09T17:36:02.224Z,12.30
2023-04-09T17:39:04.620Z,14.50
2023-04-09T17:42:07.815Z,13.82
2023-04-09T17:45:10.802Z,12.77
2023-04-09T17:48:13.172Z,13.57
2023-04-09T17:51:18.586Z,12.55
2023-04-09T17:54:26.497Z,12.55
2023-04-09T17:57:30.802Z,12.35
2023-04-09T18:00:34.476Z,12.38
2023-04-09T18:03:37.264Z,12.15
2023-04-09T18:06:40.139Z,11.80
2023-04-09T18:09:42.620Z,13.02
2023-04-09T18:12:45.105Z,13.45
2023-04-09T18:15:47.832Z,12.63
2023-04-09T18:18:50.329Z,12.13
2023-04-09T18:21:52.910Z,13.63
2023-04-09T18:24:55.572Z,12.05
2023-04-09T18:27:58.229Z,13.90
2023-04-09T18:31:00.760Z,12.55
2023-04-09T18:34:03.256Z,11.75
2023-04-09T18:37:06.213Z,11.73
2023-04-09T18:40:12.318Z,14.07
2023-04-09T18:43:14.874Z,12.38
2023-04-09T18:46:17.574Z,12.05
2023-04-09T18:49:20.022Z,12.10
2023-04-09T18:52:22.536Z,12.73
2023-04-09T18:55:25.076Z,13.77
2023-04-09T18:58:27.651Z,13.35
2023-04-09T19:01:30.370Z,12.02
2023-04-09T19:04:39.723Z,11.55
2023-04-09T19:07:43.574Z,12.15
2023-04-09T19:10:47.641Z,12.32
2023-04-09T19:13:50.172Z,12.65
2023-04-09T19:16:52.637Z,12.70
2023-04-09T19:19:55.078Z,11.48
2023-04-09T19:22:58.365Z,11.35
2023-04-09T19:26:00.922Z,11.90
2023-04-09T19:29:05.386Z,12.07
2023-04-09T19:32:09.403Z,11.43
2023-04-09T19:35:12.610Z,12.63
2023-04-09T19:38:16.060Z,12.25
2023-04-09T19:41:18.730Z,12.02
2023-04-09T19:44:21.264Z,13.15
2023-04-09T19:47:23.852Z,13.93
2023-04-09T19:50:26.466Z,15.98
2023-04-09T19:53:29.124Z,14.70
2023-04-09T19:56:32.970Z,31.65
2023-04-09T19:59:39.690Z,46.25
2023-04-09T20:02:42.637Z,42.17
2023-04-09T20:05:45.099Z,51.85
2023-04-09T20:08:49.479Z,36.97
2023-04-09T20:11:52.365Z,34.38
2023-04-09T20:14:57.979Z,34.13
2023-04-09T20:18:00.823Z,28.80
2023-04-09T20:21:03.366Z,26.33
2023-04-09T20:24:06.978Z,23.05
2023-04-09T20:27:09.655Z,21.45
2023-04-09T20:30:12.770Z,18.80
2023-04-09T20:33:15.758Z,19.52
2023-04-09T20:36:18.646Z,17.15
2023-04-09T20:39:26.815Z,17.17
2023-04-09T20:42:29.293Z,15.68
2023-04-09T20:45:31.922Z,14.30
2023-04-09T20:48:34.370Z,15.00
2023-04-09T20:51:36.995Z,15.60
2023-04-09T20:54:39.540Z,14.52
2023-04-09T20:57:42.541Z,14.63
2023-04-09T21:00:44.954Z,14.52
2023-04-09T21:03:47.578Z,14.95
2023-04-09T21:06:50.031Z,14.48
2023-04-09T21:09:52.444Z,15.02
2023-04-09T21:12:54.934Z,15.05
2023-04-09T21:15:57.602Z,14.40
2023-04-09T21:19:06.848Z,15.43
2023-04-09T21:22:09.391Z,15.73
2023-04-09T21:25:14.597Z,15.52
2023-04-09T21:28:17.718Z,17.70
2023-04-09T21:31:21.303Z,17.88
2023-04-09T21:34:23.893Z,14.68
2023-04-09T21:37:28.237Z,14.93
2023-04-09T21:40:31.296Z,16.13
2023-04-09T21:43:34.700Z,15.02
2023-04-09T21:46:37.389Z,15.00
2023-04-09T21:49:40.697Z,14.18
2023-04-09T21:52:45.124Z,14.15
2023-04-09T21:55:47.593Z,15.30
2023-04-09T21:58:50.068Z,15.15
2023-04-09T22:01:53.266Z,14.13
2023-04-09T22:04:56.304Z,15.15
2023-04-09T22:07:58.865Z,14.88
2023-04-09T22:11:01.342Z,14.85
2023-04-09T22:14:03.761Z,15.85
2023-04-09T22:17:06.137Z,14.77
2023-04-09T22:20:09.698Z,15.38
2023-04-09T22:23:12.435Z,14.75
2023-04-09T22:26:15.003Z,14.52
2023-04-09T22:29:17.437Z,14.50
2023-04-09T22:32:19.980Z,14.18
2023-04-09T22:35:22.389Z,14.55
2023-04-09T22:38:25.135Z,14.45
2023-04-09T22:41:27.657Z,14.20
2023-04-09T22:44:30.144Z,14.77
2023-04-09T22:47:32.590Z,14.38
2023-04-09T22:50:35.156Z,14.15
2023-04-09T22:53:37.580Z,14.38
2023-04-09T22:56:39.985Z,15.25
2023-04-09T22:59:43.102Z,14.45
2023-04-09T23:02:47.565Z,15.88
2023-04-09T23:05:50.331Z,15.60
2023-04-09T23:08:53.081Z,15.88
2023-04-09T23:11:56.851Z,14.65
2023-04-09T23:14:59.294Z,15.60
2023-04-09T23:18:01.841Z,15.75
2023-04-09T23:21:08.171Z,16.27
2023-04-09T23:24:10.762Z,15.52
2023-04-09T23:27:14.160Z,16.67
2023-04-09T23:30:17.186Z,16.15
2023-04-09T23:33:19.781Z,15.82
2023-04-09T23:36:24.267Z,16.77
2023-04-09T23:39:27.342Z,16.55
2023-04-09T23:42:33.028Z,16.67
2023-04-09T23:45:35.808Z,15.63
2023-04-09T23:48:38.386Z,16.55
2023-04-09T23:51:40.992Z,16.35
2023-04-09T23:54:50.273Z,14.98
2023-04-09T23:57:52.984Z,14.10
